CheckWX is a tool to help pilots better visualize weather data.  It is not intended as a substitute for an official pre-flight weather briefing.

00:03:20 UTC

KGUC TAF
Gunnison-Crested Butte Regional Airport
Gunnison, Colorado, USA
KGUC 162320Z 1700/1724 26012G21KT P6SM SCT080 FM170300 31006KT P6SM SKC FM172100 27007KT P6SM FEW250

Nov-17@
00:00 UTC

Nov-17 @ 00:00 UTC

Nov-17@
03:00 UTC

Nov-17 @ 03:00 UTC

KGUC 162320Z 1700/1724 26012G21KT P6SM SCT080
Wind
  • 260° at 12 KTS
  • {Gusting to 21 KTS
Cloud Levels
  • Scattered at 8,000' AGL

Nov-17@
03:00 UTC

Nov-17 @ 03:00 UTC

Nov-17@
21:00 UTC

Nov-17 @ 21:00 UTC

FM170300 31006KT P6SM SKC

From

From Standard forecast or significant change

Wind
  • 310° at 6 KTS
Cloud Levels
  • Clear skies

Nov-17@
21:00 UTC

Nov-17 @ 21:00 UTC

Nov-18@
00:00 UTC

Nov-18 @ 00:00 UTC

FM172100 27007KT P6SM FEW250

From

From Standard forecast or significant change

Wind
  • 270° at 7 KTS
Cloud Levels
  • Few at 25,000' AGL